C.C. Strip


Codes: FVCC/
Name: C.C. Strip
City: C.C. Strip
Country: Zimbabwe
Elevation: 4050 ft.

Photos at C.C. Strip


   Photos courtesy of SpottingLog. You can add your own sightings and photos by signing up for a free trial today.



No photos found.

Weather at C.C. Strip


Time (UTC)DescriptionTempratureWindCloud coverageVisibilityPressureHumidity
26-Jun-2024 00:00Clear Sky12°C7 mph, SE2%10000m1025hPa63%
26-Jun-2024 03:00Few Clouds11°C7 mph, SE19%10000m1024hPa74%
26-Jun-2024 06:00Few Clouds14°C9 mph, SE14%10000m1024hPa65%
26-Jun-2024 09:00Clear Sky21°C9 mph, E1%10000m1023hPa35%
26-Jun-2024 12:00Few Clouds23°C11 mph, E16%10000m1019hPa31%
26-Jun-2024 15:00Broken Clouds19°C11 mph, E63%10000m1021hPa44%
26-Jun-2024 18:00Broken Clouds16°C11 mph, E81%10000m1023hPa53%
26-Jun-2024 21:00Broken Clouds15°C9 mph, E81%10000m1023hPa53%
27-Jun-2024 00:00Overcast Clouds15°C9 mph, SE85%10000m1023hPa48%
27-Jun-2024 03:00Broken Clouds12°C9 mph, SE58%10000m1024hPa58%
27-Jun-2024 06:00Scattered Clouds14°C11 mph, SE42%10000m1025hPa57%
27-Jun-2024 09:00Scattered Clouds21°C9 mph, SE49%10000m1024hPa33%
27-Jun-2024 12:00Scattered Clouds24°C9 mph, E38%10000m1020hPa25%
27-Jun-2024 15:00Scattered Clouds21°C4 mph, NE38%10000m1019hPa28%
27-Jun-2024 18:00Broken Clouds16°C11 mph, SE64%10000m1023hPa57%
27-Jun-2024 21:00Overcast Clouds15°C9 mph, E90%10000m1024hPa62%
28-Jun-2024 00:00Broken Clouds11°C7 mph, SE66%10000m1024hPa85%
28-Jun-2024 03:00Clear Sky10°C7 mph, SE7%10000m1025hPa89%
28-Jun-2024 06:00Clear Sky14°C9 mph, SE8%10000m1025hPa69%
28-Jun-2024 09:00Clear Sky21°C9 mph, E3%10000m1023hPa35%
28-Jun-2024 12:00Few Clouds22°C11 mph, SE24%10000m1019hPa35%
28-Jun-2024 15:00Overcast Clouds19°C9 mph, E97%10000m1020hPa46%
28-Jun-2024 18:00Overcast Clouds15°C7 mph, E95%10000m1023hPa63%
28-Jun-2024 21:00Clear Sky11°C2 mph, E6%10000m1024hPa84%
29-Jun-2024 00:00Clear Sky10°C4 mph, SE4%10000m1023hPa93%
29-Jun-2024 03:00Clear Sky9°C4 mph, SE0%10000m1024hPa94%
29-Jun-2024 06:00Clear Sky13°C4 mph, E0%10000m1024hPa69%
29-Jun-2024 09:00Clear Sky22°C2 mph, NE0%10000m1021hPa35%
29-Jun-2024 12:00Clear Sky24°C4 mph, SW4%10000m1017hPa26%
29-Jun-2024 15:00Scattered Clouds21°C4 mph, SW27%10000m1017hPa29%
29-Jun-2024 18:00Scattered Clouds16°C4 mph, NE40%10000m1020hPa43%
29-Jun-2024 21:00Broken Clouds13°C2 mph, NE58%10000m1021hPa61%
30-Jun-2024 00:00Scattered Clouds11°C2 mph, E34%10000m1021hPa70%
30-Jun-2024 03:00Few Clouds10°C4 mph, E13%10000m1021hPa74%
30-Jun-2024 06:00Clear Sky15°C4 mph, NE7%10000m1022hPa54%
30-Jun-2024 09:00Clear Sky23°C2 mph, NW0%10000m1020hPa28%
30-Jun-2024 12:00Clear Sky25°C4 mph, SW1%10000m1016hPa23%
30-Jun-2024 15:00Clear Sky22°C4 mph, SW4%10000m1016hPa26%
30-Jun-2024 18:00Clear Sky15°C4 mph, S3%10000m1020hPa36%
30-Jun-2024 21:00Clear Sky12°C4 mph, E3%10000m1022hPa44%